createdAt,value
2022-12-04T00:02:12.546Z,21.92
2022-12-04T00:04:41.869Z,22.63
2022-12-04T00:07:09.603Z,22.27
2022-12-04T00:09:37.344Z,21.70
2022-12-04T00:12:05.567Z,21.33
2022-12-04T00:14:33.397Z,21.38
2022-12-04T00:17:01.198Z,19.88
2022-12-04T00:19:28.919Z,20.85
2022-12-04T00:21:58.163Z,21.98
2022-12-04T00:24:25.942Z,21.42
2022-12-04T00:26:53.701Z,20.42
2022-12-04T00:29:24.198Z,20.75
2022-12-04T00:31:52.557Z,19.25
2022-12-04T00:34:22.173Z,19.20
2022-12-04T00:36:49.941Z,19.08
2022-12-04T00:39:18.931Z,18.25
2022-12-04T00:41:46.664Z,21.23
2022-12-04T00:44:16.308Z,20.50
2022-12-04T00:46:44.087Z,18.98
2022-12-04T00:49:11.745Z,20.05
2022-12-04T00:51:40.077Z,19.55
2022-12-04T00:54:08.127Z,18.92
2022-12-04T00:56:37.198Z,18.48
2022-12-04T00:59:04.901Z,18.58
2022-12-04T01:01:32.831Z,18.40
2022-12-04T01:04:00.694Z,19.27
2022-12-04T01:06:30.486Z,17.75
2022-12-04T01:08:59.753Z,18.42
2022-12-04T01:11:28.967Z,18.58
2022-12-04T01:13:59.069Z,19.42
2022-12-04T01:16:29.459Z,18.50
2022-12-04T01:19:02.237Z,18.10
2022-12-04T01:21:30.121Z,17.88
2022-12-04T01:23:58.761Z,17.25
2022-12-04T01:26:27.189Z,18.92
2022-12-04T01:28:55.067Z,17.63
2022-12-04T01:31:24.937Z,18.85
2022-12-04T01:33:52.978Z,19.13
2022-12-04T01:36:23.366Z,17.27
2022-12-04T01:38:51.618Z,17.75
2022-12-04T01:41:23.450Z,18.58
2022-12-04T01:44:08.986Z,18.50
2022-12-04T01:46:38.189Z,19.15
2022-12-04T01:49:07.767Z,19.30
2022-12-04T01:51:38.289Z,18.30
2022-12-04T01:54:08.972Z,17.67
2022-12-04T01:56:40.793Z,18.50
2022-12-04T01:59:10.173Z,17.52
2022-12-04T02:01:44.057Z,17.23
2022-12-04T02:04:11.804Z,19.83
2022-12-04T02:06:39.507Z,19.85
2022-12-04T02:09:07.504Z,20.55
2022-12-04T02:11:43.873Z,19.17
2022-12-04T02:14:21.251Z,19.40
2022-12-04T02:16:57.445Z,18.88
2022-12-04T02:19:48.308Z,18.88
2022-12-04T02:22:26.004Z,21.05
2022-12-04T02:24:58.351Z,19.05
2022-12-04T02:27:34.731Z,21.35
2022-12-04T02:30:07.048Z,19.88
2022-12-04T02:32:39.547Z,20.23
2022-12-04T02:35:11.731Z,19.42
2022-12-04T02:37:44.778Z,19.05
2022-12-04T02:40:18.273Z,19.65
2022-12-04T02:42:50.537Z,19.13
2022-12-04T02:45:26.259Z,20.30
2022-12-04T02:47:55.769Z,18.85
2022-12-04T02:50:25.226Z,18.67
2022-12-04T02:52:56.553Z,18.55
2022-12-04T02:55:30.157Z,18.88
2022-12-04T02:58:02.318Z,17.63
2022-12-04T03:00:33.623Z,19.45
2022-12-04T03:03:05.170Z,18.48
2022-12-04T03:05:42.158Z,16.77
2022-12-04T03:08:14.422Z,18.00
2022-12-04T03:10:48.849Z,18.55
2022-12-04T03:13:19.985Z,19.73
2022-12-04T03:15:54.228Z,20.08
2022-12-04T03:18:26.859Z,18.83
2022-12-04T03:21:00.942Z,18.45
2022-12-04T03:23:33.311Z,18.98
2022-12-04T03:26:05.266Z,18.35
2022-12-04T03:28:40.468Z,17.48
2022-12-04T03:31:12.115Z,18.80
2022-12-04T03:33:43.265Z,19.75
2022-12-04T03:36:15.718Z,18.05
2022-12-04T03:38:51.235Z,17.90
2022-12-04T03:41:27.173Z,17.70
2022-12-04T03:44:00.896Z,18.00
2022-12-04T03:46:36.150Z,18.48
2022-12-04T03:49:12.527Z,18.67
2022-12-04T03:51:44.885Z,17.58
2022-12-04T03:54:15.797Z,19.15
2022-12-04T03:56:47.573Z,19.17
2022-12-04T03:59:19.947Z,18.95
2022-12-04T04:01:51.870Z,19.73
2022-12-04T04:04:24.205Z,19.27
2022-12-04T04:06:55.581Z,18.38
2022-12-04T04:09:26.413Z,17.95
2022-12-04T04:11:58.014Z,18.20
2022-12-04T04:14:46.867Z,18.60
2022-12-04T04:17:38.715Z,18.30
2022-12-04T04:20:30.763Z,17.50
2022-12-04T04:23:19.079Z,17.88
2022-12-04T04:25:48.411Z,18.65
2022-12-04T04:28:30.488Z,18.30
2022-12-04T04:31:06.381Z,18.70
2022-12-04T04:33:39.859Z,18.08
2022-12-04T04:36:18.861Z,17.05
2022-12-04T04:38:52.767Z,18.20
2022-12-04T04:41:24.041Z,18.63
2022-12-04T04:43:57.208Z,18.88
2022-12-04T04:46:30.791Z,18.27
2022-12-04T04:49:02.736Z,18.67
2022-12-04T04:51:33.734Z,19.08
2022-12-04T04:54:06.903Z,18.55
2022-12-04T04:56:41.224Z,18.50
2022-12-04T04:59:09.191Z,18.30
2022-12-04T05:01:37.931Z,19.45
2022-12-04T05:04:08.304Z,19.30
2022-12-04T05:06:36.174Z,18.73
2022-12-04T05:09:04.917Z,18.90
2022-12-04T05:11:33.342Z,18.60
2022-12-04T05:14:01.197Z,18.55
2022-12-04T05:16:28.953Z,19.60
2022-12-04T05:19:14.225Z,19.40
2022-12-04T05:21:43.447Z,20.60
2022-12-04T05:24:11.040Z,18.38
2022-12-04T05:26:38.684Z,20.25
2022-12-04T05:29:06.797Z,18.63
2022-12-04T05:31:34.468Z,17.83
2022-12-04T05:34:02.233Z,18.70
2022-12-04T05:36:29.957Z,18.17
2022-12-04T05:38:59.806Z,20.65
2022-12-04T05:41:27.598Z,19.17
2022-12-04T05:43:55.371Z,19.17
2022-12-04T05:46:23.270Z,19.88
2022-12-04T05:48:51.181Z,18.38
2022-12-04T05:51:18.877Z,18.75
2022-12-04T05:53:46.634Z,19.08
2022-12-04T05:56:15.589Z,18.85
2022-12-04T05:58:43.388Z,20.50
2022-12-04T06:01:13.281Z,18.45
2022-12-04T06:03:40.937Z,18.10
2022-12-04T06:06:19.282Z,20.02
2022-12-04T06:08:49.502Z,20.58
2022-12-04T06:11:21.493Z,17.95
2022-12-04T06:13:49.886Z,19.65
2022-12-04T06:16:19.525Z,18.70
2022-12-04T06:18:52.176Z,18.35
2022-12-04T06:21:21.356Z,19.90
2022-12-04T06:23:49.668Z,18.50
2022-12-04T06:26:19.291Z,20.20
2022-12-04T06:28:47.473Z,19.90
2022-12-04T06:31:19.190Z,19.83
2022-12-04T06:33:48.206Z,18.55
2022-12-04T06:36:17.609Z,19.20
2022-12-04T06:38:45.879Z,20.23
2022-12-04T06:41:17.081Z,20.38
2022-12-04T06:43:46.427Z,18.42
2022-12-04T06:46:16.270Z,19.48
2022-12-04T06:48:44.534Z,20.65
2022-12-04T06:51:13.815Z,19.85
2022-12-04T06:53:41.679Z,18.92
2022-12-04T06:56:13.045Z,19.77
2022-12-04T06:58:41.254Z,19.70
2022-12-04T07:01:12.043Z,19.27
2022-12-04T07:03:40.127Z,19.38
2022-12-04T07:06:13.196Z,20.70
2022-12-04T07:08:40.950Z,18.83
2022-12-04T07:11:08.970Z,20.60
2022-12-04T07:13:36.901Z,20.33
2022-12-04T07:16:06.554Z,19.45
2022-12-04T07:18:36.661Z,21.80
2022-12-04T07:21:07.522Z,20.63
2022-12-04T07:23:35.849Z,19.10
2022-12-04T07:26:07.107Z,19.73
2022-12-04T07:28:35.956Z,20.02
2022-12-04T07:31:05.780Z,20.52
2022-12-04T07:33:37.849Z,21.08
2022-12-04T07:36:17.537Z,20.58
2022-12-04T07:38:45.457Z,20.85
2022-12-04T07:41:14.258Z,20.50
2022-12-04T07:43:42.678Z,19.38
2022-12-04T07:46:15.751Z,20.50
2022-12-04T07:48:44.994Z,20.77
2022-12-04T07:51:14.456Z,20.17
2022-12-04T07:53:43.047Z,20.75
2022-12-04T07:56:12.328Z,20.75
2022-12-04T07:58:40.539Z,20.17
2022-12-04T08:01:10.864Z,21.05
2022-12-04T08:03:43.536Z,20.95
2022-12-04T08:06:14.471Z,21.50
2022-12-04T08:08:42.148Z,22.02
2022-12-04T08:11:12.599Z,19.92
2022-12-04T08:13:40.505Z,21.60
2022-12-04T08:16:11.040Z,19.90
2022-12-04T08:18:40.369Z,19.80
2022-12-04T08:21:17.310Z,20.30
2022-12-04T08:23:45.853Z,21.08
2022-12-04T08:26:14.347Z,20.52
2022-12-04T08:28:42.416Z,21.02
2022-12-04T08:31:13.729Z,20.60
2022-12-04T08:33:42.991Z,22.02
2022-12-04T08:36:14.524Z,20.55
2022-12-04T08:38:43.302Z,20.60
2022-12-04T08:41:14.727Z,20.85
2022-12-04T08:43:43.203Z,20.95
2022-12-04T08:46:13.529Z,22.10
2022-12-04T08:48:43.071Z,21.05
2022-12-04T08:51:15.844Z,20.90
2022-12-04T08:53:44.293Z,20.65
2022-12-04T08:56:14.881Z,20.10
2022-12-04T08:58:42.862Z,22.10
2022-12-04T09:01:16.491Z,21.45
2022-12-04T09:03:44.945Z,20.48
2022-12-04T09:06:16.288Z,21.35
2022-12-04T09:08:44.129Z,21.30
2022-12-04T09:11:13.816Z,20.42
2022-12-04T09:13:42.555Z,21.27
2022-12-04T09:16:12.752Z,21.52
2022-12-04T09:18:40.900Z,20.65
2022-12-04T09:21:11.094Z,20.33
2022-12-04T09:23:40.790Z,20.70
2022-12-04T09:26:19.269Z,19.98
2022-12-04T09:28:47.044Z,20.25
2022-12-04T09:31:14.809Z,20.55
2022-12-04T09:33:45.319Z,20.75
2022-12-04T09:36:16.350Z,21.45
2022-12-04T09:38:46.758Z,20.00
2022-12-04T09:41:32.146Z,21.52
2022-12-04T09:44:03.736Z,21.38
2022-12-04T09:46:37.451Z,19.45
2022-12-04T09:49:11.128Z,20.50
2022-12-04T09:51:40.675Z,19.95
2022-12-04T09:54:15.281Z,20.55
2022-12-04T09:56:45.114Z,20.50
2022-12-04T09:59:17.750Z,19.83
2022-12-04T10:01:48.256Z,21.75
2022-12-04T10:04:17.199Z,18.77
2022-12-04T10:06:50.625Z,19.63
2022-12-04T10:09:25.662Z,19.70
2022-12-04T10:12:03.857Z,17.98
2022-12-04T10:14:51.496Z,17.90
2022-12-04T10:17:36.843Z,19.05
2022-12-04T10:20:17.489Z,18.70
2022-12-04T10:22:58.703Z,19.33
2022-12-04T10:25:29.252Z,19.08
2022-12-04T10:28:01.134Z,18.30
2022-12-04T10:30:32.031Z,20.00
2022-12-04T10:33:05.686Z,17.83
2022-12-04T10:35:36.407Z,19.35
2022-12-04T10:38:07.738Z,18.88
2022-12-04T10:40:44.266Z,19.35
2022-12-04T10:43:16.154Z,18.77
2022-12-04T10:45:44.222Z,18.85
2022-12-04T10:48:19.297Z,18.67
2022-12-04T10:50:50.178Z,18.98
2022-12-04T10:53:19.120Z,18.85
2022-12-04T10:55:51.725Z,18.08
2022-12-04T10:58:21.200Z,17.63
2022-12-04T11:01:03.197Z,17.77
2022-12-04T11:03:31.023Z,17.40
2022-12-04T11:06:01.590Z,18.58
2022-12-04T11:08:34.430Z,17.67
2022-12-04T11:11:06.244Z,17.75
2022-12-04T11:13:34.127Z,18.10
2022-12-04T11:16:01.941Z,18.50
2022-12-04T11:18:31.642Z,18.85
2022-12-04T11:21:05.614Z,19.35
2022-12-04T11:23:40.345Z,17.85
2022-12-04T11:26:11.392Z,18.25
2022-12-04T11:28:49.566Z,19.23
2022-12-04T11:31:21.059Z,19.00
2022-12-04T11:33:54.090Z,19.77
2022-12-04T11:36:25.248Z,19.45
2022-12-04T11:38:55.484Z,19.23
2022-12-04T11:41:29.256Z,18.05
2022-12-04T11:44:00.219Z,17.60
2022-12-04T11:46:30.889Z,18.45
2022-12-04T11:49:00.665Z,18.48
2022-12-04T11:51:46.828Z,18.45
2022-12-04T11:54:29.375Z,19.58
2022-12-04T11:57:08.338Z,17.15
2022-12-04T12:00:09.863Z,19.13
2022-12-04T12:02:52.312Z,18.98
2022-12-04T12:05:37.507Z,19.60
2022-12-04T12:08:14.187Z,18.33
2022-12-04T12:10:50.793Z,19.05
2022-12-04T12:13:30.218Z,19.88
2022-12-04T12:16:13.301Z,20.20
2022-12-04T12:18:54.930Z,18.65
2022-12-04T12:21:29.872Z,17.92
2022-12-04T12:24:10.502Z,19.95
2022-12-04T12:26:48.561Z,18.50
2022-12-04T12:29:26.180Z,19.13
2022-12-04T12:32:09.099Z,19.17
2022-12-04T12:34:40.108Z,20.50
2022-12-04T12:37:15.265Z,19.55
2022-12-04T12:39:50.745Z,19.90
2022-12-04T12:42:21.714Z,19.30
2022-12-04T12:44:56.938Z,19.75
2022-12-04T12:47:29.849Z,19.85
2022-12-04T12:50:03.041Z,19.90
2022-12-04T12:52:36.457Z,18.98
2022-12-04T12:55:14.118Z,18.88
2022-12-04T12:57:44.797Z,18.45
2022-12-04T13:00:18.190Z,17.05
2022-12-04T13:02:50.297Z,19.85
2022-12-04T13:05:22.793Z,17.63
2022-12-04T13:07:57.003Z,18.55
2022-12-04T13:10:29.327Z,19.40
2022-12-04T13:13:02.139Z,16.85
2022-12-04T13:15:39.261Z,18.10
2022-12-04T13:18:11.660Z,17.25
2022-12-04T13:20:49.263Z,18.10
2022-12-04T13:23:31.944Z,17.10
2022-12-04T13:26:08.628Z,17.75
2022-12-04T13:28:48.414Z,16.98
2022-12-04T13:31:28.009Z,16.10
2022-12-04T13:34:26.377Z,17.73
2022-12-04T13:37:04.669Z,16.20
2022-12-04T13:39:55.232Z,17.42
2022-12-04T13:42:31.351Z,16.63
2022-12-04T13:45:10.124Z,17.83
2022-12-04T13:47:41.454Z,15.85
2022-12-04T13:50:32.251Z,15.73
2022-12-04T13:53:01.801Z,16.58
2022-12-04T13:55:34.311Z,16.65
2022-12-04T13:58:03.814Z,18.23
2022-12-04T14:00:34.785Z,18.45
2022-12-04T14:03:06.838Z,15.52
2022-12-04T14:05:42.541Z,16.98
2022-12-04T14:08:24.672Z,16.40
2022-12-04T14:11:01.337Z,15.95
2022-12-04T14:13:36.215Z,16.95
2022-12-04T14:16:06.402Z,16.73
2022-12-04T14:18:35.598Z,16.40
2022-12-04T14:21:05.524Z,16.45
2022-12-04T14:23:38.538Z,16.23
2022-12-04T14:26:07.054Z,16.63
2022-12-04T14:28:45.180Z,17.52
2022-12-04T14:31:23.359Z,17.67
2022-12-04T14:33:57.386Z,18.30
2022-12-04T14:36:27.346Z,16.92
2022-12-04T14:39:02.880Z,17.08
2022-12-04T14:41:30.696Z,17.98
2022-12-04T14:43:58.852Z,17.45
2022-12-04T14:46:34.294Z,17.65
2022-12-04T14:49:15.645Z,17.25
2022-12-04T14:51:53.133Z,19.80
2022-12-04T14:54:28.957Z,20.33
2022-12-04T14:57:12.019Z,19.42
2022-12-04T14:59:43.930Z,18.58
2022-12-04T15:02:14.737Z,19.65
2022-12-04T15:04:46.835Z,20.27
2022-12-04T15:07:22.303Z,19.80
2022-12-04T15:10:12.771Z,20.80
2022-12-04T15:12:43.354Z,19.67
2022-12-04T15:15:19.373Z,20.25
2022-12-04T15:17:57.691Z,19.73
2022-12-04T15:20:38.848Z,20.52
2022-12-04T15:23:07.144Z,18.73
2022-12-04T15:25:43.516Z,20.25
2022-12-04T15:28:20.523Z,22.15
2022-12-04T15:30:50.372Z,21.13
2022-12-04T15:33:21.828Z,19.95
2022-12-04T15:35:58.961Z,21.40
2022-12-04T15:38:27.613Z,21.17
2022-12-04T15:41:00.223Z,20.17
2022-12-04T15:43:32.172Z,20.85
2022-12-04T15:46:13.814Z,20.83
2022-12-04T15:49:06.367Z,21.13
2022-12-04T15:51:38.871Z,20.77
2022-12-04T15:54:19.222Z,22.15
2022-12-04T15:57:03.862Z,21.63
2022-12-04T15:59:36.565Z,22.35
2022-12-04T16:02:22.665Z,21.15
2022-12-04T16:05:25.780Z,21.30
2022-12-04T16:08:07.912Z,20.05
2022-12-04T16:10:43.029Z,19.98
2022-12-04T16:13:30.030Z,18.38
2022-12-04T16:16:03.163Z,19.65
2022-12-04T16:18:31.125Z,21.80
2022-12-04T16:20:59.454Z,21.98
2022-12-04T16:23:32.705Z,19.45
2022-12-04T16:26:00.400Z,19.52
2022-12-04T16:28:28.098Z,20.75
2022-12-04T16:30:56.986Z,19.33
2022-12-04T16:33:24.703Z,19.40
2022-12-04T16:35:52.386Z,19.38
2022-12-04T16:38:23.049Z,19.67
2022-12-04T16:40:52.322Z,19.15
2022-12-04T16:43:20.706Z,19.52
2022-12-04T16:45:51.920Z,18.35
2022-12-04T16:48:20.040Z,17.70
2022-12-04T16:50:47.850Z,18.00
2022-12-04T16:53:17.650Z,16.95
2022-12-04T16:55:47.505Z,19.48
2022-12-04T16:58:17.498Z,16.85
2022-12-04T17:00:51.056Z,18.27
2022-12-04T17:03:28.051Z,18.67
2022-12-04T17:05:56.148Z,18.67
2022-12-04T17:08:24.799Z,18.42
2022-12-04T17:10:52.940Z,19.67
2022-12-04T17:13:22.920Z,19.73
2022-12-04T17:15:50.914Z,18.85
2022-12-04T17:18:21.361Z,18.02
2022-12-04T17:20:49.885Z,17.95
2022-12-04T17:23:17.513Z,18.05
2022-12-04T17:25:45.204Z,18.58
2022-12-04T17:28:12.862Z,19.88
2022-12-04T17:30:45.527Z,18.73
2022-12-04T17:33:13.247Z,18.45
2022-12-04T17:35:43.500Z,17.65
2022-12-04T17:38:11.347Z,18.13
2022-12-04T17:40:42.336Z,17.95
2022-12-04T17:43:10.078Z,17.15
2022-12-04T17:45:42.181Z,17.98
2022-12-04T17:48:09.775Z,17.00
2022-12-04T17:50:37.403Z,17.38
2022-12-04T17:53:05.076Z,16.67
2022-12-04T17:55:34.669Z,16.75
2022-12-04T17:58:02.336Z,17.25
2022-12-04T18:00:30.194Z,16.98
2022-12-04T18:02:59.244Z,17.05
2022-12-04T18:05:30.238Z,17.52
2022-12-04T18:08:00.523Z,16.27
2022-12-04T18:10:28.416Z,17.10
2022-12-04T18:12:56.055Z,17.15
2022-12-04T18:15:23.826Z,17.50
2022-12-04T18:17:51.524Z,16.58
2022-12-04T18:20:20.982Z,17.73
2022-12-04T18:22:53.059Z,16.17
2022-12-04T18:25:25.934Z,14.98
2022-12-04T18:27:56.624Z,15.13
2022-12-04T18:30:24.202Z,15.43
2022-12-04T18:32:52.470Z,15.20
2022-12-04T18:35:21.433Z,16.05
2022-12-04T18:37:49.249Z,16.45
2022-12-04T18:40:16.958Z,14.85
2022-12-04T18:42:44.663Z,16.23
2022-12-04T18:45:12.506Z,15.05
2022-12-04T18:47:40.102Z,16.33
2022-12-04T18:50:08.476Z,15.43
2022-12-04T18:52:38.386Z,15.45
2022-12-04T18:55:06.492Z,15.00
2022-12-04T18:57:34.532Z,15.23
2022-12-04T19:00:02.336Z,17.45
2022-12-04T19:02:30.090Z,16.02
2022-12-04T19:04:57.947Z,17.45
2022-12-04T19:07:25.657Z,18.33
2022-12-04T19:10:11.945Z,17.15
2022-12-04T19:12:39.782Z,17.55
2022-12-04T19:15:08.602Z,18.15
2022-12-04T19:17:36.434Z,17.30
2022-12-04T19:20:04.167Z,18.00
2022-12-04T19:22:31.822Z,16.92
2022-12-04T19:25:00.720Z,18.67
2022-12-04T19:27:28.439Z,17.77
2022-12-04T19:29:56.330Z,18.38
2022-12-04T19:32:24.540Z,18.50
2022-12-04T19:34:52.525Z,19.42
2022-12-04T19:37:20.194Z,18.63
2022-12-04T19:39:48.262Z,17.52
2022-12-04T19:42:17.557Z,18.02
2022-12-04T19:44:49.405Z,17.90
2022-12-04T19:47:17.523Z,20.17
2022-12-04T19:49:45.193Z,17.95
2022-12-04T19:52:12.880Z,17.77
2022-12-04T19:54:40.691Z,20.20
2022-12-04T19:57:08.333Z,18.02
2022-12-04T19:59:41.732Z,17.98
2022-12-04T20:02:13.005Z,17.92
2022-12-04T20:04:40.735Z,18.55
2022-12-04T20:07:08.784Z,18.92
2022-12-04T20:09:36.356Z,18.05
2022-12-04T20:12:04.301Z,17.70
2022-12-04T20:14:32.002Z,16.75
2022-12-04T20:17:03.875Z,16.35
2022-12-04T20:19:31.902Z,18.55
2022-12-04T20:21:59.754Z,17.38
2022-12-04T20:24:27.498Z,17.77
2022-12-04T20:26:55.176Z,17.40
2022-12-04T20:29:22.800Z,17.20
2022-12-04T20:31:50.513Z,17.42
2022-12-04T20:34:19.828Z,16.48
2022-12-04T20:36:48.980Z,16.55
2022-12-04T20:39:17.991Z,17.00
2022-12-04T20:41:46.352Z,15.57
2022-12-04T20:44:15.860Z,15.55
2022-12-04T20:46:43.909Z,17.05
2022-12-04T20:49:18.810Z,16.50
2022-12-04T20:51:51.209Z,17.05
2022-12-04T20:54:21.048Z,16.33
2022-12-04T20:56:49.405Z,16.90
2022-12-04T20:59:19.030Z,17.50
2022-12-04T21:01:47.232Z,16.10
2022-12-04T21:04:17.885Z,17.55
2022-12-04T21:06:46.511Z,17.25
2022-12-04T21:09:18.029Z,17.05
2022-12-04T21:11:50.260Z,15.85
2022-12-04T21:14:38.821Z,17.65
2022-12-04T21:17:09.262Z,16.52
2022-12-04T21:19:42.108Z,15.55
2022-12-04T21:22:21.299Z,16.13
2022-12-04T21:24:50.330Z,16.42
2022-12-04T21:27:21.556Z,16.73
2022-12-04T21:29:49.414Z,18.23
2022-12-04T21:32:17.173Z,16.58
2022-12-04T21:34:46.516Z,18.80
2022-12-04T21:37:14.440Z,17.52
2022-12-04T21:39:45.183Z,16.55
2022-12-04T21:42:32.748Z,16.17
2022-12-04T21:45:01.804Z,17.52
2022-12-04T21:47:30.321Z,17.02
2022-12-04T21:49:58.392Z,16.33
2022-12-04T21:52:37.768Z,16.77
2022-12-04T21:55:15.664Z,17.98
2022-12-04T21:57:52.834Z,16.67
2022-12-04T22:00:23.607Z,17.23
2022-12-04T22:03:06.310Z,17.17
2022-12-04T22:05:42.133Z,16.50
2022-12-04T22:08:21.758Z,17.13
2022-12-04T22:10:54.601Z,16.42
2022-12-04T22:13:27.596Z,17.58
2022-12-04T22:15:55.594Z,16.52
2022-12-04T22:18:27.604Z,17.60
2022-12-04T22:20:56.908Z,18.67
2022-12-04T22:23:24.626Z,18.35
2022-12-04T22:26:07.262Z,18.05
2022-12-04T22:28:36.891Z,17.65
2022-12-04T22:31:14.157Z,17.05
2022-12-04T22:33:42.920Z,18.77
2022-12-04T22:36:12.591Z,17.58
2022-12-04T22:39:06.032Z,18.65
2022-12-04T22:41:28.575Z,18.17
2022-12-04T22:43:57.573Z,16.73
2022-12-04T22:46:25.303Z,18.25
2022-12-04T22:48:53.079Z,17.50
2022-12-04T22:51:22.726Z,16.30
2022-12-04T22:53:51.910Z,17.85
2022-12-04T22:56:21.868Z,17.45
2022-12-04T22:58:49.730Z,17.15
2022-12-04T23:01:20.667Z,18.15
2022-12-04T23:03:49.081Z,16.35
2022-12-04T23:06:18.737Z,17.70
2022-12-04T23:08:47.036Z,19.35
2022-12-04T23:11:16.453Z,17.52
2022-12-04T23:13:44.383Z,16.27
2022-12-04T23:16:16.898Z,17.70
2022-12-04T23:18:49.161Z,16.92
2022-12-04T23:21:17.713Z,16.58
2022-12-04T23:23:46.824Z,17.05
2022-12-04T23:26:18.174Z,17.25
2022-12-04T23:28:46.178Z,16.60
2022-12-04T23:31:14.214Z,17.38
2022-12-04T23:33:42.650Z,16.92
2022-12-04T23:36:13.118Z,17.30
2022-12-04T23:38:42.517Z,16.98
2022-12-04T23:41:13.131Z,16.38
2022-12-04T23:43:41.936Z,17.70
2022-12-04T23:46:11.801Z,16.95
2022-12-04T23:48:40.076Z,15.73
2022-12-04T23:51:11.728Z,16.67
2022-12-04T23:53:39.657Z,16.10
2022-12-04T23:56:09.339Z,17.20
2022-12-04T23:58:37.732Z,16.90
